createdAt,value
2022-11-24T00:00:01.538Z,0.00
2022-11-24T00:10:01.046Z,0.00
2022-11-24T00:20:01.172Z,0.00
2022-11-24T00:30:00.965Z,0.00
2022-11-24T00:40:00.127Z,0.00
2022-11-24T00:50:00.992Z,0.00
2022-11-24T01:00:01.039Z,0.00
2022-11-24T01:10:01.062Z,0.00
2022-11-24T01:20:01.269Z,0.00
2022-11-24T01:30:00.155Z,0.00
2022-11-24T01:40:00.999Z,0.00
2022-11-24T01:50:01.315Z,0.00
2022-11-24T02:00:00.979Z,0.00
2022-11-24T02:10:01.041Z,0.00
2022-11-24T02:20:00.144Z,0.00
2022-11-24T02:30:01.580Z,0.00
2022-11-24T02:40:01.213Z,0.00
2022-11-24T02:50:01.550Z,0.00
2022-11-24T03:00:00.113Z,0.00
2022-11-24T03:10:01.032Z,0.00
2022-11-24T03:20:04.477Z,0.00
2022-11-24T03:30:00.124Z,0.00
2022-11-24T03:40:00.129Z,0.00
2022-11-24T03:50:02.134Z,0.00
2022-11-24T04:00:00.989Z,0.00
2022-11-24T04:10:01.026Z,0.00
2022-11-24T04:20:00.967Z,0.00
2022-11-24T04:30:02.288Z,0.00
2022-11-24T04:40:00.138Z,0.00
2022-11-24T04:50:01.561Z,0.00
2022-11-24T05:00:02.218Z,0.00
2022-11-24T05:10:01.062Z,0.00
2022-11-24T05:20:01.226Z,0.00
2022-11-24T05:30:00.142Z,0.00
2022-11-24T05:40:00.155Z,0.00
2022-11-24T05:50:01.616Z,0.00
2022-11-24T06:00:00.125Z,0.00
2022-11-24T06:10:01.027Z,0.57
2022-11-24T06:20:00.183Z,3.06
2022-11-24T06:30:01.064Z,5.00
2022-11-24T06:40:02.242Z,21.67
2022-11-24T06:50:02.399Z,53.33
2022-11-24T07:00:01.082Z,96.67
2022-11-24T07:10:01.253Z,155.00
2022-11-24T07:20:01.258Z,221.67
2022-11-24T07:30:01.287Z,231.67
2022-11-24T07:40:00.958Z,251.67
2022-11-24T07:50:01.055Z,333.33
2022-11-24T08:00:02.718Z,380.00
2022-11-24T08:10:01.262Z,456.67
2022-11-24T08:20:01.267Z,470.00
2022-11-24T08:30:00.198Z,580.00
2022-11-24T08:40:01.201Z,731.67
2022-11-24T08:50:01.311Z,856.67
2022-11-24T09:00:00.132Z,935.00
2022-11-24T09:10:01.310Z,966.67
2022-11-24T09:20:02.602Z,1226.67
2022-11-24T09:30:01.239Z,1660.00
2022-11-24T09:40:01.066Z,1800.00
2022-11-24T09:50:02.240Z,1635.00
2022-11-24T10:00:01.282Z,3206.67
2022-11-24T10:10:01.083Z,4617.50
2022-11-24T10:20:00.996Z,5071.67
2022-11-24T10:30:01.243Z,2395.00
2022-11-24T10:40:01.242Z,3933.33
2022-11-24T10:50:01.281Z,4593.33
2022-11-24T11:00:01.296Z,4605.00
2022-11-24T11:10:01.326Z,7004.17
2022-11-24T11:20:02.446Z,2686.67
2022-11-24T11:40:01.627Z,3520.83
2022-11-24T11:50:01.006Z,2013.33
2022-11-24T12:00:03.941Z,2096.67
2022-11-24T12:10:01.462Z,3262.08
2022-11-24T12:20:00.136Z,1403.33
2022-11-24T12:30:01.347Z,3737.92
2022-11-24T12:40:01.222Z,3842.92
2022-11-24T12:50:01.081Z,1878.33
2022-11-24T13:00:00.995Z,1133.33
2022-11-24T13:10:01.296Z,3192.50
2022-11-24T13:20:00.125Z,1706.67
2022-11-24T13:30:01.150Z,1979.17
2022-11-24T13:40:01.013Z,975.00
2022-11-24T13:50:01.631Z,978.33
2022-11-24T14:00:01.532Z,740.00
2022-11-24T14:10:01.017Z,765.00
2022-11-24T14:20:00.152Z,545.00
2022-11-24T14:30:01.944Z,381.67
2022-11-24T14:40:00.114Z,178.33
2022-11-24T14:50:00.225Z,96.67
2022-11-24T15:00:03.182Z,79.17
2022-11-24T15:10:00.216Z,20.00
2022-11-24T15:20:01.019Z,5.00
2022-11-24T15:30:01.251Z,4.07
2022-11-24T15:40:01.022Z,0.45
2022-11-24T15:50:01.323Z,0.11
2022-11-24T16:00:01.060Z,0.00
2022-11-24T16:10:01.499Z,0.00
2022-11-24T16:20:01.247Z,0.00
2022-11-24T16:30:02.181Z,0.00
2022-11-24T16:40:01.267Z,0.00
2022-11-24T16:50:01.700Z,0.00
2022-11-24T17:00:01.762Z,0.00
2022-11-24T17:10:01.320Z,0.00
2022-11-24T17:20:01.271Z,0.00
2022-11-24T17:30:01.068Z,0.00
2022-11-24T17:40:26.566Z,0.00
2022-11-24T17:50:01.552Z,0.00
2022-11-24T18:00:01.249Z,0.00
2022-11-24T18:10:01.021Z,0.00
2022-11-24T18:20:01.301Z,0.00
2022-11-24T18:30:01.792Z,0.00
2022-11-24T18:40:01.249Z,0.00
2022-11-24T18:50:01.300Z,0.00
2022-11-24T19:00:01.046Z,0.00
2022-11-24T19:10:02.165Z,0.00
2022-11-24T19:20:01.543Z,0.00
2022-11-24T19:30:01.313Z,0.00
2022-11-24T19:40:02.367Z,0.00
2022-11-24T19:50:02.877Z,0.00
2022-11-24T20:00:02.930Z,0.00
2022-11-24T20:10:06.185Z,0.00
2022-11-24T20:20:01.026Z,0.00
2022-11-24T20:30:01.004Z,0.00
2022-11-24T20:40:01.067Z,0.00
2022-11-24T20:50:01.361Z,0.00
2022-11-24T21:00:00.983Z,0.00
2022-11-24T21:10:01.260Z,0.00
2022-11-24T21:20:01.445Z,0.00
2022-11-24T21:30:01.076Z,0.00
2022-11-24T21:40:01.496Z,0.00
2022-11-24T22:00:01.310Z,0.00
2022-11-24T22:10:01.241Z,0.00
2022-11-24T22:20:00.135Z,0.00
2022-11-24T22:30:01.066Z,0.00
2022-11-24T22:40:01.203Z,0.00
2022-11-24T22:50:01.022Z,0.00
2022-11-24T23:00:01.096Z,0.00
2022-11-24T23:10:01.225Z,0.00
2022-11-24T23:20:04.416Z,0.00
2022-11-24T23:30:00.142Z,0.00
2022-11-24T23:40:01.293Z,0.00
2022-11-24T23:50:01.981Z,0.00
